Time;durP1;ratioP1;P1;durP2;ratioP2;P2;SDS_P1;SDS_P2;PMS_P1;PMS_P2;Temp;Humidity;BMP_temperature;BMP_pressure;BME280_temperature;BME280_humidity;BME280_pressure;Samples;Min_cycle;Max_cycle;Signal;HPM_P1;HPM_P2
2022/12/16 00:01:01;;;;;;;;;;;0.30;99.90;;;;;;5015301;28;19920;-59
2022/12/16 00:03:26;;;;;;;;;;;0.20;99.90;;;;;;5014474;28;19944;-59
2022/12/16 00:05:53;;;;;;;;;;;0.20;99.90;;;;;;5032356;28;20520;-60
2022/12/16 00:08:19;;;;;;;;;;;0.30;99.90;;;;;;5014680;28;20305;-60
2022/12/16 00:10:53;;;;;;;;;;;0.20;99.90;;;;;;5015914;28;19920;-60
2022/12/16 00:13:19;;;;;;;;;;;0.30;99.90;;;;;;5015756;28;19931;-59
2022/12/16 00:15:45;;;;;;;;;;;0.30;99.90;;;;;;5016444;28;19917;-60
2022/12/16 00:18:11;;;;;;;;;;;0.30;99.90;;;;;;5016831;28;19909;-55
2022/12/16 00:20:42;;;;;;;;;;;0.30;99.90;;;;;;5019638;28;20185;-56
2022/12/16 00:23:07;;;;;;;;;;;0.30;99.90;;;;;;5033120;28;20470;-60
2022/12/16 00:25:33;;;;;;;;;;;0.40;99.90;;;;;;5015490;28;20012;-59
2022/12/16 00:27:58;;;;;;;;;;;0.30;99.90;;;;;;5014403;28;19913;-60
2022/12/16 00:30:23;;;;;;;;;;;0.30;99.90;;;;;;5012569;28;19927;-61
2022/12/16 00:32:49;;;;;;;;;;;0.30;99.90;;;;;;5012880;28;20012;-60
2022/12/16 00:35:15;;;;;;;;;;;0.30;99.90;;;;;;5013674;28;19909;-60
2022/12/16 00:37:40;;;;;;;;;;;0.40;99.90;;;;;;5031192;28;20004;-60
2022/12/16 00:40:06;;;;;;;;;;;0.40;99.90;;;;;;5015565;28;19909;-62
2022/12/16 00:42:31;;;;;;;;;;;0.40;99.90;;;;;;5016937;28;19944;-60
2022/12/16 00:44:56;;;;;;;;;;;0.50;99.90;;;;;;5018120;28;20009;-62
2022/12/16 00:47:22;;;;;;;;;;;0.40;99.90;;;;;;5018816;28;19913;-59
2022/12/16 00:49:47;;;;;;;;;;;0.40;99.90;;;;;;5024277;28;19999;-60
2022/12/16 00:52:13;;;;;;;;;;;0.40;99.90;;;;;;5024384;28;20004;-62
2022/12/16 00:54:40;;;;;;;;;;;0.40;99.90;;;;;;5023414;28;20255;-60
2022/12/16 00:57:05;;;;;;;;;;;0.40;99.90;;;;;;5024638;28;20260;-59
2022/12/16 00:59:30;;;;;;;;;;;0.40;99.90;;;;;;5042890;28;19925;-60
2022/12/16 01:01:56;;;;;;;;;;;0.40;99.90;;;;;;5024611;28;19909;-61
2022/12/16 01:04:21;;;;;;;;;;;0.40;99.90;;;;;;5024487;28;20390;-61
2022/12/16 01:06:47;;;;;;;;;;;0.50;99.90;;;;;;5035839;28;20201;-60
2022/12/16 01:09:12;;;;;;;;;;;0.50;99.90;;;;;;5027375;28;19924;-59
2022/12/16 01:11:38;;;;;;;;;;;0.50;99.90;;;;;;5033879;28;20185;-61
2022/12/16 01:14:03;;;;;;;;;;;0.50;99.90;;;;;;5033328;28;20197;-61
2022/12/16 01:16:29;;;;;;;;;;;0.50;99.90;;;;;;5033193;28;19909;-60
2022/12/16 01:18:55;;;;;;;;;;;0.50;99.90;;;;;;5051288;28;19917;-61
2022/12/16 01:21:22;;;;;;;;;;;0.50;99.90;;;;;;5037001;28;20184;-59
2022/12/16 01:23:47;;;;;;;;;;;0.50;99.90;;;;;;5038254;28;19909;-59
2022/12/16 01:26:15;;;;;;;;;;;0.50;99.90;;;;;;5038255;28;20015;-60
2022/12/16 01:28:40;;;;;;;;;;;0.40;99.90;;;;;;5038005;28;19909;-60
2022/12/16 01:31:06;;;;;;;;;;;0.60;99.90;;;;;;5036565;28;20454;-60
2022/12/16 01:33:32;;;;;;;;;;;0.40;99.90;;;;;;5036739;28;20002;-61
2022/12/16 01:35:58;;;;;;;;;;;0.40;99.90;;;;;;5033969;28;19923;-63
2022/12/16 01:38:24;;;;;;;;;;;0.40;99.90;;;;;;5050932;28;20346;-61
2022/12/16 01:40:50;;;;;;;;;;;0.40;99.90;;;;;;5033031;28;19917;-60
2022/12/16 01:43:16;;;;;;;;;;;0.40;99.90;;;;;;5033600;28;19959;-62
2022/12/16 01:45:42;;;;;;;;;;;0.40;99.90;;;;;;5052712;28;20358;-60
2022/12/16 01:48:18;;;;;;;;;;;0.40;99.90;;;;;;5052513;28;19916;-61
2022/12/16 01:50:44;;;;;;;;;;;0.40;99.90;;;;;;5054171;28;20011;-59
2022/12/16 01:53:10;;;;;;;;;;;0.40;99.90;;;;;;5038545;28;20003;-61
2022/12/16 01:55:38;;;;;;;;;;;0.40;99.90;;;;;;5054809;28;19909;-60
2022/12/16 01:58:21;;;;;;;;;;;0.40;99.90;;;;;;5038818;28;20137;-61
2022/12/16 02:00:47;;;;;;;;;;;0.40;99.90;;;;;;5035503;28;19917;-61
2022/12/16 02:03:13;;;;;;;;;;;0.40;99.90;;;;;;5052492;28;20076;-61
2022/12/16 02:05:40;;;;;;;;;;;0.40;99.90;;;;;;5033438;28;19909;-60
2022/12/16 02:08:10;;;;;;;;;;;0.40;99.90;;;;;;5032630;28;20027;-61
2022/12/16 02:10:41;;;;;;;;;;;0.40;99.90;;;;;;5051725;28;19986;-61
2022/12/16 02:13:19;;;;;;;;;;;0.40;99.90;;;;;;5034767;28;20051;-61
2022/12/16 02:15:49;;;;;;;;;;;0.40;99.90;;;;;;5035539;28;19917;-60
2022/12/16 02:18:20;;;;;;;;;;;0.30;99.90;;;;;;5036104;28;19909;-60
2022/12/16 02:20:58;;;;;;;;;;;0.40;99.90;;;;;;5037689;28;20177;-59
2022/12/16 02:23:46;;;;;;;;;;;0.40;99.90;;;;;;5036967;28;19913;-60
2022/12/16 02:26:19;;;;;;;;;;;0.30;99.90;;;;;;5035366;28;19908;-60
2022/12/16 02:29:09;;;;;;;;;;;0.10;99.90;;;;;;5035090;28;19936;-60
2022/12/16 02:31:44;;;;;;;;;;;0.00;99.90;;;;;;5054892;28;20324;-60
2022/12/16 02:34:12;;;;;;;;;;;0.10;99.90;;;;;;5037709;28;19909;-61
2022/12/16 02:36:44;;;;;;;;;;;0.10;99.90;;;;;;5055220;28;20002;-60
2022/12/16 02:39:17;;;;;;;;;;;0.20;99.90;;;;;;5036665;28;19908;-61
2022/12/16 02:41:48;;;;;;;;;;;0.20;99.90;;;;;;5036980;28;19916;-59
2022/12/16 02:44:14;;;;;;;;;;;0.20;99.90;;;;;;5057403;28;20277;-60
2022/12/16 02:46:51;;;;;;;;;;;0.00;99.90;;;;;;5038235;28;19913;-60
2022/12/16 02:49:17;;;;;;;;;;;0.10;99.90;;;;;;5037175;28;20315;-59
2022/12/16 02:51:43;;;;;;;;;;;0.10;99.90;;;;;;5037131;28;20274;-59
2022/12/16 02:54:09;;;;;;;;;;;0.10;99.90;;;;;;5053356;28;20075;-59
2022/12/16 02:56:35;;;;;;;;;;;0.10;99.90;;;;;;5036717;28;19962;-59
2022/12/16 02:59:22;;;;;;;;;;;0.10;99.90;;;;;;5035245;28;20015;-60
2022/12/16 03:01:53;;;;;;;;;;;0.10;99.90;;;;;;5037533;28;20156;-60
2022/12/16 03:04:21;;;;;;;;;;;0.00;99.90;;;;;;5037769;28;19977;-60
2022/12/16 03:06:48;;;;;;;;;;;-0.10;99.90;;;;;;5039859;28;19924;-60
2022/12/16 03:09:17;;;;;;;;;;;-0.20;99.90;;;;;;5038307;28;19925;-59
2022/12/16 03:11:43;;;;;;;;;;;-0.30;99.90;;;;;;5037435;28;19917;-60
2022/12/16 03:14:12;;;;;;;;;;;-0.20;99.90;;;;;;5055685;28;20015;-59
2022/12/16 03:16:38;;;;;;;;;;;-0.30;99.90;;;;;;5056349;28;19916;-59
2022/12/16 03:19:05;;;;;;;;;;;-0.30;99.90;;;;;;5038515;28;19909;-60
2022/12/16 03:21:36;;;;;;;;;;;-0.30;99.90;;;;;;5053334;28;19935;-60
2022/12/16 03:24:04;;;;;;;;;;;-0.30;99.90;;;;;;5034987;28;20269;-60
2022/12/16 03:26:33;;;;;;;;;;;-0.30;99.90;;;;;;5052966;28;20289;-59
2022/12/16 03:29:25;;;;;;;;;;;-0.30;99.90;;;;;;5035374;28;19971;-58
2022/12/16 03:31:54;;;;;;;;;;;-0.30;99.90;;;;;;5030519;28;19909;-60
2022/12/16 03:34:24;;;;;;;;;;;-0.30;99.90;;;;;;5035339;28;19966;-58
2022/12/16 03:36:51;;;;;;;;;;;-0.30;99.90;;;;;;5054249;28;19908;-60
2022/12/16 03:39:17;;;;;;;;;;;-0.20;99.90;;;;;;5037337;28;19970;-59
2022/12/16 03:41:45;;;;;;;;;;;-0.20;99.90;;;;;;5038104;28;20006;-61
2022/12/16 03:44:11;;;;;;;;;;;-0.20;99.90;;;;;;5038325;28;19923;-60
2022/12/16 03:46:37;;;;;;;;;;;-0.20;99.90;;;;;;5038024;28;19917;-59
2022/12/16 03:49:02;;;;;;;;;;;-0.20;99.90;;;;;;5036666;28;19909;-59
2022/12/16 03:51:29;;;;;;;;;;;-0.30;99.90;;;;;;5035245;28;20003;-58
2022/12/16 03:53:54;;;;;;;;;;;-0.30;99.90;;;;;;5035843;28;19916;-60
2022/12/16 03:56:20;;;;;;;;;;;-0.30;99.90;;;;;;5034671;28;19908;-60
2022/12/16 03:58:45;;;;;;;;;;;-0.30;99.90;;;;;;5035576;28;19909;-60
2022/12/16 04:01:11;;;;;;;;;;;-0.30;99.90;;;;;;5033389;28;19921;-60
2022/12/16 04:03:37;;;;;;;;;;;-0.40;99.90;;;;;;5035445;28;20161;-60
2022/12/16 04:06:03;;;;;;;;;;;-0.30;99.90;;;;;;5035370;28;19920;-60
2022/12/16 04:08:29;;;;;;;;;;;-0.30;99.90;;;;;;5036490;28;19920;-59
2022/12/16 04:25:05;;;;;;;;;;;-0.30;99.90;;;;;;5050616;28;20058;-60
2022/12/16 04:27:30;;;;;;;;;;;-0.40;99.90;;;;;;5036123;28;19968;-58
